Nearby METAR Reports

 

KAVP - Avoca/Wilkes B., Pennsylvania, USA
Distance from station: NE 13mi, 20km
Updated: Tue, 28-May-2024 6:54am PDT
Clear
Clear
 Wind from WSW
Wind: WSW 14 mph , 22 km/h, Gust: 23 mph , 37 km/h
Temperature: 70°F , 21°C
Dew Point: 55°F , 13°C
Humidity: 60%
Barometer: 29.76 inHg , 1007.8 hPa
Clouds: Clear
Visibility: 10 miles , 16 km
2024/05/28 13:54 KAVP 281354Z 25012G20KT 10SM CLR 21/13 A2976 RMK AO2 SLP070 T02060128
KMPO - Mt. Pocono, Pennsylvania, USA
Distance from station: ESE 28mi, 45km
Updated: Tue, 28-May-2024 6:53am PDT
Clear
Clear
 Wind from W
Wind: W 16 mph , 26 km/h, Gust: 25 mph , 41 km/h
Temperature: 63°F , 17°C
Dew Point: 54°F , 12°C
Humidity: 73%
Barometer: 29.77 inHg , 1008.1 hPa
Clouds: Clear
Visibility: 10 miles , 16 km
2024/05/28 13:53 KMPO 281353Z AUTO 27014G22KT 10SM CLR 17/12 A2977 RMK AO2 PK WND 26026/1318 SLP076 T01720117
 
KABE - Allentown, Pennsylvania, USA
Distance from station: SSE 46mi, 74km
Updated: Tue, 28-May-2024 6:51am PDT
Clear
Clear
 Wind from WNW
Wind: WNW 14 mph , 22 km/h, Gust: 22 mph , 35 km/h
Temperature: 70°F , 21°C
Dew Point: 55°F , 13°C
Humidity: 60%
Barometer: 29.77 inHg , 1008.1 hPa
Clouds: Clear
Visibility: 10 miles , 16 km
2024/05/28 13:51 KABE 281351Z 29012G19KT 10SM CLR 21/13 A2977 RMK AO2 SLP078 T02110128
KXLL - Allentown Queen, Pennsylvania, USA
Distance from station: SSE 50mi, 81km
Updated: Tue, 28-May-2024 6:55am PDT
Clear
Clear
 Wind from W
Wind: W 15 mph , 24 km/h, Gust: 20 mph , 31 km/h
Temperature: 70°F , 21°C
Dew Point: 54°F , 12°C
Humidity: 57%
Barometer: 29.79 inHg , 1008.8 hPa
Clouds: Clear
Visibility: 10 miles , 16 km
2024/05/28 13:55 KXLL 281355Z AUTO 27013G17KT 10SM CLR 21/12 A2979 RMK AO2
 
KIPT - Williamsport, Pennsylvania, USA
Distance from station: W 52mi, 84km
Updated: Tue, 28-May-2024 6:54am PDT
Partly Cloudy
Partly Cloudy
 Wind from W
Wind: W 15 mph , 24 km/h, Gust: 23 mph , 37 km/h
Temperature: 70°F , 21°C
Dew Point: 54°F , 12°C
Humidity: 57%
Barometer: 29.76 inHg , 1007.8 hPa
Clouds: Partly Cloudy
Visibility: 10 miles , 16 km
Cloud details: Few Clouds 3600 ft
Partly Cloudy 5000 ft
2024/05/28 13:54 KIPT 281354Z 26013G20KT 10SM FEW036 SCT050 21/12 A2976 RMK AO2 SLP075 T02110122
KSEG - Selinsgrove, Pennsylvania, USA
Distance from station: WSW 57mi, 92km
Updated: Tue, 28-May-2024 6:53am PDT
Mostly Cloudy
Mostly Cloudy
 Wind from varies
Wind: varies 3 mph , 6 km/h
Temperature: 70°F , 21°C
Dew Point: 54°F , 12°C
Humidity: 57%
Barometer: 29.80 inHg , 1009.1 hPa
Clouds: Mostly Cloudy
Visibility: 10 miles , 16 km
Cloud details: Mostly Cloudy 4500 ft
2024/05/28 13:53 KSEG 281353Z AUTO VRB03KT 10SM BKN045 21/12 A2980 RMK AO2 SLP087 T02060122
 
KRDG - Reading, Pennsylvania, USA
Distance from station: S 59mi, 95km
Updated: Tue, 28-May-2024 6:54am PDT
Clear
Clear
 Wind from W
Wind: W 13 mph , 20 km/h
Temperature: 73°F , 23°C
Dew Point: 54°F , 12°C
Humidity: 50%
Barometer: 29.78 inHg , 1008.5 hPa
Clouds: Clear
Visibility: 10 miles , 16 km
2024/05/28 13:54 KRDG 281354Z 28011KT 10SM CLR 23/12 A2978 RMK AO2 SLPNO T02280122 $
KUKT - Quakertown Arp, Pennsylvania, USA
Distance from station: SSE 61mi, 98km
Updated: Tue, 28-May-2024 7:15am PDT
Clear
Clear
 Wind from NNW
Wind: NNW 10 mph , 17 km/h
Temperature: 72°F , 22°C
Dew Point: 55°F , 13°C
Humidity: 57%
Barometer: 29.80 inHg , 1009.1 hPa
Clouds: Clear
Visibility: 10 miles , 16 km
2024/05/28 14:15 KUKT 281415Z AUTO 33009KT 10SM CLR 22/13 A2980 RMK AO2
 
K12N - Andover, New Jersey, USA
Distance from station: ESE 63mi, 101km
Updated: Tue, 28-May-2024 6:54am PDT

 Wind from varies
Wind: varies 7 mph , 11 km/h
Temperature: 70°F , 21°C
Dew Point: 57°F , 14°C
Humidity: 64%
Barometer: 29.76 inHg , 1007.8 hPa
2024/05/28 13:54 K12N 281354Z AUTO VRB06KT 21/14 A2976 RMK AO1 SLP070 P0002 T02060139
KMUI - Muir Aaf/Indiant, Pennsylvania, USA
Distance from station: SSW 65mi, 105km
Updated: Tue, 28-May-2024 6:55am PDT
Partly Cloudy
Partly Cloudy
 Wind from WNW
Wind: WNW 14 mph , 22 km/h, Gust: 20 mph , 31 km/h
Temperature: 72°F , 22°C
Dew Point: 54°F , 12°C
Humidity: 53%
Barometer: 29.78 inHg , 1008.5 hPa
Clouds: Partly Cloudy
Visibility: 10 miles , 16 km
Cloud details: Partly Cloudy 4100 ft
2024/05/28 13:55 KMUI 281355Z 29012G17KT 10SM SCT041 22/12 A2978 RMK AO2A SLPNO T02190119
 
KFWN - Sussex, New Jersey, USA
Distance from station: E 66mi, 107km
Updated: Tue, 28-May-2024 6:53am PDT
Partly Cloudy
Partly Cloudy
 Wind from varies
Wind: varies 6 mph , 9 km/h
Temperature: 70°F , 21°C
Dew Point: 57°F , 14°C
Humidity: 64%
Barometer: 29.74 inHg , 1007.1 hPa
Clouds: Partly Cloudy
Visibility: 10 miles , 16 km
Cloud details: Partly Cloudy 3500 ft
Partly Cloudy 4200 ft
2024/05/28 13:53 KFWN 281353Z AUTO VRB05KT 10SM SCT035 SCT042 21/14 A2974 RMK AO2 SLP068 T02110144
KMSV - Monticello, New York, USA
Distance from station: ENE 67mi, 108km
Updated: Tue, 05-Mar-2024 10:38am PST
NOT Current
Light rain, Mist, Overcast
Light rain, Mist, Overcast
 Wind from E
Wind: E 8 mph , 13 km/h
Temperature: 43°F , 6°C
Wind Chill: 38°F , 3°C
Dew Point: 41°F , 5°C
Humidity: 93%
Barometer: 30.09 inHg , 1019 hPa
Summary: Light rain, Mist
Clouds: Overcast
Visibility: 03 miles , 5 km
Cloud details: Overcast 400 ft
2024/03/05 18:38 KMSV 051838Z 09007KT 03SM -RA BR OVC004 06/05 A3009 RMK CIG003V008
 
KBGM - Binghamton, New York, USA
Distance from station: N 69mi, 111km
Updated: Tue, 28-May-2024 6:53am PDT
Light rain, Overcast
Light rain, Overcast
 Wind from WSW
Wind: WSW 14 mph , 22 km/h, Gust: 21 mph , 33 km/h
Temperature: 64°F , 18°C
Dew Point: 54°F , 12°C
Humidity: 68%
Barometer: 29.74 inHg , 1007.1 hPa
Summary: Light Rain
Clouds: Overcast
Visibility: 10 miles , 16 km
Cloud details: Partly Cloudy 2800 ft
Mostly Cloudy 3500 ft
Overcast 6000 ft
2024/05/28 13:53 KBGM 281353Z 25012G18KT 10SM -RA SCT028 BKN035 OVC060 18/12 A2974 RMK AO2 RAB03 SLP062 P0000 T01780122
KPTW - Pottstown, Pennsylvania, USA
Distance from station: SSE 71mi, 114km
Updated: Tue, 28-May-2024 6:54am PDT
Clear
Clear
 Wind from W
Wind: W 10 mph , 17 km/h, Gust: 26 mph , 43 km/h
Temperature: 72°F , 22°C
Dew Point: 54°F , 12°C
Humidity: 53%
Barometer: 29.81 inHg , 1009.5 hPa
Clouds: Clear
Visibility: 10 miles , 16 km
2024/05/28 13:54 KPTW 281354Z AUTO 27009G23KT 10SM CLR 22/12 A2981 RMK AO2 SLP088 T02170122 $
 
KDYL - Doylestown, Pennsylvania, USA
Distance from station: SE 74mi, 119km
Updated: Tue, 28-May-2024 6:54am PDT
Clear
Clear
 Wind from W
Wind: W 12 mph , 19 km/h, Gust: 16 mph , 26 km/h
Temperature: 73°F , 23°C
Dew Point: 55°F , 13°C
Humidity: 53%
Barometer: 29.78 inHg , 1008.5 hPa
Clouds: Clear
Visibility: 10 miles , 16 km
2024/05/28 13:54 KDYL 281354Z AUTO 26010G14KT 10SM CLR 23/13 A2978 RMK AO2 SLP078 T02280133 $
KSMQ - Somerville, New Jersey, USA
Distance from station: ESE 77mi, 124km
Updated: Tue, 28-May-2024 6:53am PDT
Clear
Clear
 Wind from W
Wind: W 9 mph , 15 km/h
Temperature: 73°F , 23°C
Dew Point: 57°F , 14°C
Humidity: 57%
Barometer: 29.74 inHg , 1007.1 hPa
Clouds: Clear
Visibility: 10 miles , 16 km
2024/05/28 13:53 KSMQ 281353Z AUTO 28008KT 230V300 10SM CLR 23/14 A2974 RMK AO2 SLP071 T02280139
 
KLNS - Lancaster, Pennsylvania, USA
Distance from station: SSW 79mi, 127km
Updated: Tue, 28-May-2024 6:53am PDT
Clear
Clear
 Wind from WNW
Wind: WNW 18 mph , 30 km/h, Gust: 26 mph , 43 km/h
Temperature: 73°F , 23°C
Dew Point: 54°F , 12°C
Humidity: 50%
Barometer: 29.80 inHg , 1009.1 hPa
Clouds: Clear
Visibility: 10 miles , 16 km
2024/05/28 13:53 KLNS 281353Z 29016G23KT 10SM CLR 23/12 A2980 RMK AO2 RAB27E35 SLP089 P0000 T02280122
KELM - Elmira, New York, USA
Distance from station: NW 82mi, 132km
Updated: Tue, 28-May-2024 6:53am PDT
Overcast
Overcast
 Wind from W
Wind: W 8 mph , 13 km/h
Temperature: 66°F , 19°C
Dew Point: 55°F , 13°C
Humidity: 68%
Barometer: 29.74 inHg , 1007.1 hPa
Clouds: Overcast
Visibility: 10 miles , 16 km
Cloud details: Overcast 3800 ft
2024/05/28 13:53 KELM 281353Z 26007KT 10SM OVC038 19/13 A2974 RMK AO2 SLP066 T01940128
 
KLOM - Philly Wings F, Pennsylvania, USA
Distance from station: SSE 82mi, 132km
Updated: Tue, 28-May-2024 6:55am PDT
Clear
Clear
 Wind from W
Wind: W 12 mph , 19 km/h, Gust: 18 mph , 30 km/h
Temperature: 72°F , 22°C
Dew Point: 55°F , 13°C
Humidity: 57%
Barometer: 29.80 inHg , 1009.1 hPa
Clouds: Clear
Visibility: 10 miles , 16 km
2024/05/28 13:55 KLOM 281355Z AUTO 28010G16KT 250V310 10SM CLR 22/13 A2980 RMK AO2 T02180129
KMMU - Morristown Muni, New Jersey, USA
Distance from station: ESE 83mi, 134km
Updated: Tue, 28-May-2024 6:45am PDT
Clear
Clear
 Wind from W
Wind: W 13 mph , 20 km/h, Gust: 17 mph , 28 km/h
Temperature: 73°F , 23°C
Dew Point: 59°F , 15°C
Humidity: 61%
Barometer: 29.75 inHg , 1007.5 hPa
Clouds: Clear
Visibility: 10 miles , 16 km
2024/05/28 13:45 KMMU 281345Z 28011G15KT 10SM SKC 23/15 A2975

Metar display script from Saratoga-Weather.org